Time;durP1;ratioP1;P1;durP2;ratioP2;P2;SDS_P1;SDS_P2;PMS_P1;PMS_P2;Temp;Humidity;BMP_temperature;BMP_pressure;BME280_temperature;BME280_humidity;BME280_pressure;Samples;Min_cycle;Max_cycle;Signal;HPM_P1;HPM_P2
2023/10/18 00:02:00;;;;;;;19.85;13.18;;;;;;;;;;5082417;28;20457;-60
2023/10/18 00:04:29;;;;;;;20.27;13.55;;;;;;;;;;5078613;28;20443;-58
2023/10/18 00:06:56;;;;;;;19.98;13.52;;;;;;;;;;5078249;28;20437;-61
2023/10/18 00:09:48;;;;;;;19.60;13.98;;;;;;;;;;5084975;28;20414;-61
2023/10/18 00:12:16;;;;;;;20.10;13.38;;;;;;;;;;5084468;28;20845;-60
2023/10/18 00:14:43;;;;;;;19.80;13.13;;;;;;;;;;5083191;28;20419;-60
2023/10/18 00:17:10;;;;;;;17.48;13.75;;;;;;;;;;5082039;28;20419;-60
2023/10/18 00:19:39;;;;;;;18.63;13.38;;;;;;;;;;5084767;28;20491;-60
2023/10/18 00:22:07;;;;;;;18.08;12.73;;;;;;;;;;5083637;28;20410;-60
2023/10/18 00:24:34;;;;;;;17.67;13.50;;;;;;;;;;5082748;28;20520;-61
2023/10/18 00:27:03;;;;;;;18.90;13.77;;;;;;;;;;5084780;28;20402;-61
2023/10/18 00:29:30;;;;;;;18.92;12.52;;;;;;;;;;5080492;28;20424;-60
2023/10/18 00:31:59;;;;;;;16.65;12.18;;;;;;;;;;5083178;28;20490;-61
2023/10/18 00:34:26;;;;;;;16.23;12.77;;;;;;;;;;5077211;28;20416;-63
2023/10/18 00:36:55;;;;;;;16.95;12.65;;;;;;;;;;5082858;28;20967;-61
2023/10/18 00:39:27;;;;;;;18.50;13.52;;;;;;;;;;5081373;28;20488;-61
2023/10/18 00:41:54;;;;;;;18.60;13.68;;;;;;;;;;5081965;28;20469;-61
2023/10/18 00:44:22;;;;;;;17.38;12.85;;;;;;;;;;5081694;28;20442;-61
2023/10/18 00:46:49;;;;;;;19.27;13.60;;;;;;;;;;5084060;28;20814;-61
2023/10/18 00:49:16;;;;;;;16.50;13.17;;;;;;;;;;5080025;28;20776;-61
2023/10/18 00:51:44;;;;;;;16.98;12.43;;;;;;;;;;5080311;28;20881;-60
2023/10/18 00:54:12;;;;;;;16.20;12.07;;;;;;;;;;5083998;28;20577;-61
2023/10/18 00:56:40;;;;;;;15.52;12.45;;;;;;;;;;5082152;28;20820;-61
2023/10/18 00:59:18;;;;;;;17.60;12.20;;;;;;;;;;5081552;28;20963;-61
2023/10/18 01:01:46;;;;;;;16.50;12.30;;;;;;;;;;5079610;28;20494;-61
2023/10/18 01:04:13;;;;;;;15.48;12.30;;;;;;;;;;5080924;28;20418;-61
2023/10/18 01:06:43;;;;;;;14.75;11.98;;;;;;;;;;5075973;28;20451;-60
2023/10/18 01:09:15;;;;;;;16.38;12.73;;;;;;;;;;5082455;28;20511;-61
2023/10/18 01:11:46;;;;;;;17.63;12.23;;;;;;;;;;5080568;28;20411;-61
2023/10/18 01:14:16;;;;;;;18.15;13.35;;;;;;;;;;5082236;28;20463;-60
2023/10/18 01:16:44;;;;;;;18.25;12.95;;;;;;;;;;5082903;28;20962;-61
2023/10/18 01:19:14;;;;;;;18.30;12.93;;;;;;;;;;5081256;28;20412;-61
2023/10/18 01:21:45;;;;;;;16.95;13.05;;;;;;;;;;5081013;28;20408;-61
2023/10/18 01:24:15;;;;;;;18.30;12.98;;;;;;;;;;5077181;28;20404;-61
2023/10/18 01:26:43;;;;;;;19.30;13.18;;;;;;;;;;5081474;28;20401;-61
2023/10/18 01:29:11;;;;;;;19.40;13.60;;;;;;;;;;5083137;28;20505;-61
2023/10/18 01:31:41;;;;;;;19.88;13.45;;;;;;;;;;5080755;28;20403;-61
2023/10/18 01:34:08;;;;;;;17.17;13.17;;;;;;;;;;5081011;28;20412;-61
2023/10/18 01:36:38;;;;;;;18.73;13.70;;;;;;;;;;5081413;28;20418;-61
2023/10/18 01:39:09;;;;;;;19.60;14.02;;;;;;;;;;5079206;28;20406;-61
2023/10/18 01:41:37;;;;;;;18.87;13.60;;;;;;;;;;5083001;28;20459;-61
2023/10/18 01:44:06;;;;;;;21.20;14.60;;;;;;;;;;5080622;28;20408;-61
2023/10/18 01:46:34;;;;;;;19.85;13.85;;;;;;;;;;5080754;28;20403;-60
2023/10/18 01:49:01;;;;;;;17.08;13.27;;;;;;;;;;5083030;28;20402;-60
2023/10/18 01:51:28;;;;;;;15.20;11.93;;;;;;;;;;5079130;28;20419;-61
2023/10/18 01:53:55;;;;;;;16.65;12.50;;;;;;;;;;5073097;28;20452;-59
2023/10/18 01:56:23;;;;;;;18.02;12.52;;;;;;;;;;5077552;28;20804;-61
2023/10/18 01:58:50;;;;;;;16.40;12.18;;;;;;;;;;5070645;28;20415;-57
2023/10/18 02:01:18;;;;;;;17.98;12.30;;;;;;;;;;5074851;28;20420;-61
2023/10/18 02:03:46;;;;;;;18.00;11.90;;;;;;;;;;5076545;28;20413;-61
2023/10/18 02:06:15;;;;;;;15.73;12.07;;;;;;;;;;5077806;28;20415;-61
2023/10/18 02:08:42;;;;;;;21.25;12.77;;;;;;;;;;5078537;28;20410;-61
2023/10/18 02:11:11;;;;;;;17.08;12.93;;;;;;;;;;5079322;28;20408;-61
2023/10/18 02:13:38;;;;;;;18.27;13.07;;;;;;;;;;5081755;28;20852;-60
2023/10/18 02:16:09;;;;;;;19.85;12.98;;;;;;;;;;5077695;28;20776;-61
2023/10/18 02:18:39;;;;;;;19.52;12.75;;;;;;;;;;5065987;28;20914;-60
2023/10/18 02:21:08;;;;;;;18.13;13.35;;;;;;;;;;5066496;28;20415;-60
2023/10/18 02:23:35;;;;;;;17.15;12.60;;;;;;;;;;5080822;28;20982;-60
2023/10/18 02:26:09;;;;;;;19.17;13.43;;;;;;;;;;5073111;28;20408;-60
2023/10/18 02:28:37;;;;;;;19.27;13.30;;;;;;;;;;5079709;28;20485;-60
2023/10/18 02:31:10;;;;;;;16.25;12.77;;;;;;;;;;5074613;28;20977;-61
2023/10/18 02:33:41;;;;;;;17.63;13.27;;;;;;;;;;5072463;28;20415;-61
2023/10/18 02:36:11;;;;;;;23.50;14.25;;;;;;;;;;5068603;28;20434;-59
2023/10/18 02:38:39;;;;;;;22.33;14.40;;;;;;;;;;5076309;28;20429;-60
2023/10/18 02:41:14;;;;;;;22.33;14.02;;;;;;;;;;5077883;28;20486;-60
2023/10/18 02:43:45;;;;;;;19.15;13.43;;;;;;;;;;5075788;28;20434;-60
2023/10/18 02:46:13;;;;;;;20.38;13.73;;;;;;;;;;5076881;28;20453;-61
2023/10/18 02:48:44;;;;;;;17.30;12.38;;;;;;;;;;5075019;28;20419;-60
2023/10/18 02:51:12;;;;;;;16.13;12.17;;;;;;;;;;5075014;28;20435;-61
2023/10/18 02:53:41;;;;;;;16.83;12.80;;;;;;;;;;5077860;28;20434;-61
2023/10/18 02:56:10;;;;;;;18.90;12.85;;;;;;;;;;5073859;28;20498;-61
2023/10/18 02:58:38;;;;;;;17.80;12.27;;;;;;;;;;5080207;28;20422;-61
2023/10/18 03:01:06;;;;;;;18.08;12.60;;;;;;;;;;5072562;28;20416;-60
2023/10/18 03:03:33;;;;;;;16.95;12.68;;;;;;;;;;5078735;28;20478;-61
2023/10/18 03:06:06;;;;;;;19.42;12.65;;;;;;;;;;5071559;28;20441;-59
2023/10/18 03:08:33;;;;;;;18.80;13.32;;;;;;;;;;5080942;28;20412;-59
2023/10/18 03:11:03;;;;;;;19.15;12.88;;;;;;;;;;5082811;28;20955;-61
2023/10/18 03:13:31;;;;;;;19.15;12.10;;;;;;;;;;5085032;28;20414;-61
2023/10/18 03:16:06;;;;;;;18.27;12.65;;;;;;;;;;5085194;28;20413;-60
2023/10/18 03:18:34;;;;;;;16.35;11.65;;;;;;;;;;5077959;28;20796;-61
2023/10/18 03:21:05;;;;;;;18.53;11.50;;;;;;;;;;5070290;28;20468;-60
2023/10/18 03:23:32;;;;;;;16.67;12.13;;;;;;;;;;5079948;28;20419;-60
2023/10/18 03:26:08;;;;;;;18.58;12.05;;;;;;;;;;5076945;28;20407;-61
2023/10/18 03:28:35;;;;;;;13.35;10.13;;;;;;;;;;5081726;28;20506;-60
2023/10/18 03:31:05;;;;;;;14.67;10.10;;;;;;;;;;5077010;28;20415;-60
2023/10/18 03:33:34;;;;;;;13.60;10.00;;;;;;;;;;5083370;28;20485;-59
2023/10/18 03:36:17;;;;;;;13.93;10.02;;;;;;;;;;5076345;28;20415;-57
2023/10/18 03:38:51;;;;;;;13.50;9.70;;;;;;;;;;5083742;28;20931;-60
2023/10/18 03:41:19;;;;;;;11.38;8.85;;;;;;;;;;5084611;28;20448;-61
2023/10/18 03:43:48;;;;;;;12.85;8.63;;;;;;;;;;5082455;28;20460;-60
2023/10/18 03:46:19;;;;;;;13.55;9.20;;;;;;;;;;5084102;28;20409;-61
2023/10/18 03:48:52;;;;;;;12.45;9.20;;;;;;;;;;5084847;28;20412;-60
2023/10/18 03:51:23;;;;;;;12.45;8.73;;;;;;;;;;5080095;28;20444;-61
2023/10/18 03:53:52;;;;;;;12.47;9.17;;;;;;;;;;5082490;28;20894;-60
2023/10/18 03:56:21;;;;;;;15.77;9.35;;;;;;;;;;5079288;28;20412;-60
2023/10/18 03:58:53;;;;;;;13.65;8.90;;;;;;;;;;5083059;28;20450;-61
2023/10/18 04:01:21;;;;;;;13.43;10.03;;;;;;;;;;5084778;28;20410;-61
2023/10/18 04:03:50;;;;;;;13.25;9.55;;;;;;;;;;5082924;28;20415;-60
2023/10/18 04:06:27;;;;;;;12.60;9.20;;;;;;;;;;5077358;28;20458;-61
2023/10/18 04:08:58;;;;;;;13.48;10.07;;;;;;;;;;5079716;28;20780;-61
2023/10/18 04:11:26;;;;;;;14.77;9.55;;;;;;;;;;5084601;28;20406;-61
2023/10/18 04:13:53;;;;;;;13.27;9.18;;;;;;;;;;5082505;28;20812;-61
2023/10/18 04:16:28;;;;;;;14.48;9.80;;;;;;;;;;5082290;28;20502;-60
2023/10/18 04:18:56;;;;;;;14.87;9.77;;;;;;;;;;5078376;28;20442;-61
2023/10/18 04:21:26;;;;;;;14.55;10.05;;;;;;;;;;5082284;28;20412;-60
2023/10/18 04:23:56;;;;;;;15.57;10.55;;;;;;;;;;5084440;28;20730;-61
2023/10/18 04:26:26;;;;;;;16.65;10.30;;;;;;;;;;5082523;28;20496;-61
2023/10/18 04:28:57;;;;;;;14.73;10.27;;;;;;;;;;5081348;28;20419;-60
2023/10/18 04:31:25;;;;;;;15.70;10.25;;;;;;;;;;5083438;28;20827;-60
2023/10/18 04:33:54;;;;;;;15.13;10.55;;;;;;;;;;5083498;28;20451;-61
2023/10/18 04:36:21;;;;;;;13.88;10.90;;;;;;;;;;5077393;28;20418;-61
2023/10/18 04:38:49;;;;;;;16.10;11.30;;;;;;;;;;5081999;28;20912;-61
2023/10/18 04:41:28;;;;;;;16.23;10.75;;;;;;;;;;5083294;28;20436;-61
2023/10/18 04:44:04;;;;;;;15.10;10.38;;;;;;;;;;5080236;28;20461;-60
2023/10/18 04:46:31;;;;;;;14.02;10.23;;;;;;;;;;5077225;28;20443;-60
2023/10/18 04:49:16;;;;;;;13.30;9.80;;;;;;;;;;5082542;28;20485;-61
2023/10/18 04:51:45;;;;;;;16.98;10.60;;;;;;;;;;5078890;28;20419;-61
2023/10/18 04:54:15;;;;;;;15.60;10.32;;;;;;;;;;5081293;28;20411;-61
2023/10/18 04:56:43;;;;;;;13.95;10.40;;;;;;;;;;5077836;28;20404;-61
2023/10/18 04:59:22;;;;;;;15.80;10.43;;;;;;;;;;5081692;28;20417;-61
2023/10/18 05:01:56;;;;;;;15.25;10.60;;;;;;;;;;5078276;28;20408;-61
2023/10/18 05:04:24;;;;;;;15.25;10.57;;;;;;;;;;5080904;28;20817;-60
2023/10/18 05:06:54;;;;;;;13.95;10.57;;;;;;;;;;5080378;28;20468;-60
2023/10/18 05:09:29;;;;;;;13.90;10.43;;;;;;;;;;5082768;28;20476;-60
2023/10/18 05:11:55;;;;;;;13.68;9.80;;;;;;;;;;5078041;28;20435;-61
2023/10/18 05:14:36;;;;;;;16.10;10.20;;;;;;;;;;5081399;28;20833;-60
2023/10/18 05:17:10;;;;;;;13.90;10.30;;;;;;;;;;5078589;28;20511;-61
2023/10/18 05:19:37;;;;;;;13.13;10.00;;;;;;;;;;5080194;28;20415;-60
2023/10/18 05:22:05;;;;;;;13.48;9.45;;;;;;;;;;5082761;28;20822;-60
2023/10/18 05:24:37;;;;;;;12.23;9.23;;;;;;;;;;5082041;28;20911;-61
2023/10/18 05:27:05;;;;;;;12.95;8.98;;;;;;;;;;5080187;28;21168;-61
2023/10/18 05:29:43;;;;;;;14.57;9.75;;;;;;;;;;5081892;28;20414;-61
2023/10/18 05:32:13;;;;;;;13.00;9.48;;;;;;;;;;5075466;28;20853;-60
2023/10/18 05:34:51;;;;;;;14.68;10.13;;;;;;;;;;5081638;28;20984;-60
2023/10/18 05:37:19;;;;;;;13.73;9.63;;;;;;;;;;5075085;28;20774;-60
2023/10/18 05:42:35;;;;;;;15.90;9.65;;;;;;;;;;5080496;28;20540;-61
2023/10/18 05:45:04;;;;;;;13.60;10.05;;;;;;;;;;5082905;28;20419;-61
2023/10/18 05:47:31;;;;;;;15.15;10.32;;;;;;;;;;5090477;28;20417;-61
2023/10/18 05:49:59;;;;;;;13.50;10.55;;;;;;;;;;5085080;28;20410;-61
2023/10/18 05:52:37;;;;;;;14.00;10.20;;;;;;;;;;5076075;28;20494;-60
2023/10/18 05:55:08;;;;;;;14.27;10.20;;;;;;;;;;5079799;28;20489;-61
2023/10/18 05:57:35;;;;;;;14.43;9.93;;;;;;;;;;5077375;28;20407;-61
2023/10/18 06:00:17;;;;;;;12.95;9.75;;;;;;;;;;5080539;28;20481;-61
2023/10/18 06:02:45;;;;;;;13.30;9.95;;;;;;;;;;5078867;28;20464;-60
2023/10/18 06:05:12;;;;;;;14.27;9.88;;;;;;;;;;5078765;28;20411;-60
2023/10/18 06:07:39;;;;;;;14.27;9.95;;;;;;;;;;5071988;28;20754;-60
2023/10/18 06:10:13;;;;;;;15.10;10.32;;;;;;;;;;5081921;28;20806;-60
2023/10/18 06:12:41;;;;;;;13.50;9.73;;;;;;;;;;5082256;28;20417;-60
2023/10/18 06:15:14;;;;;;;12.43;8.88;;;;;;;;;;5080720;28;20412;-60
2023/10/18 06:17:47;;;;;;;10.73;8.95;;;;;;;;;;5079285;28;20490;-59
2023/10/18 06:20:24;;;;;;;13.40;9.23;;;;;;;;;;5080804;28;20493;-60
2023/10/18 06:22:53;;;;;;;12.13;8.63;;;;;;;;;;5075282;28;20403;-60
2023/10/18 06:25:26;;;;;;;12.20;9.07;;;;;;;;;;5080109;28;20467;-60
2023/10/18 06:27:54;;;;;;;12.10;8.75;;;;;;;;;;5081992;28;20561;-59
2023/10/18 06:30:24;;;;;;;12.60;8.65;;;;;;;;;;5072296;28;20421;-59
2023/10/18 06:32:52;;;;;;;14.02;9.40;;;;;;;;;;5073990;28;20949;-62
2023/10/18 06:35:19;;;;;;;13.75;9.23;;;;;;;;;;5064257;28;20484;-62
2023/10/18 06:37:46;;;;;;;13.10;8.97;;;;;;;;;;5072679;28;20763;-65
2023/10/18 06:40:23;;;;;;;12.50;8.75;;;;;;;;;;5071627;28;20476;-65
2023/10/18 06:42:50;;;;;;;13.23;9.43;;;;;;;;;;5071700;28;20433;-68
2023/10/18 06:45:19;;;;;;;13.40;9.40;;;;;;;;;;5088516;28;20806;-63
2023/10/18 06:47:47;;;;;;;11.48;9.07;;;;;;;;;;5084374;28;20416;-63
2023/10/18 06:50:19;;;;;;;17.02;9.90;;;;;;;;;;5076892;28;20474;-62
2023/10/18 06:52:52;;;;;;;184.07;167.82;;;;;;;;;;5079037;28;20410;-66
2023/10/18 06:55:23;;;;;;;325.50;254.23;;;;;;;;;;5076738;28;22358;-63
2023/10/18 06:57:51;;;;;;;355.55;244.75;;;;;;;;;;5075242;28;20955;-62
2023/10/18 07:00:18;;;;;;;353.23;241.60;;;;;;;;;;5077409;28;20410;-62
2023/10/18 07:02:45;;;;;;;354.15;235.65;;;;;;;;;;5077770;28;20514;-64
2023/10/18 07:05:16;;;;;;;357.17;240.40;;;;;;;;;;5074550;28;21199;-62
2023/10/18 07:07:43;;;;;;;349.88;231.48;;;;;;;;;;5073766;28;20408;-62
2023/10/18 07:10:20;;;;;;;352.15;230.43;;;;;;;;;;5076897;28;20828;-62
2023/10/18 07:12:51;;;;;;;352.20;221.43;;;;;;;;;;5068460;28;20501;-62
2023/10/18 07:15:22;;;;;;;349.75;223.15;;;;;;;;;;5078159;28;20501;-62
2023/10/18 07:17:51;;;;;;;352.95;231.68;;;;;;;;;;5076374;28;20486;-62
2023/10/18 07:20:21;;;;;;;351.17;218.75;;;;;;;;;;5075557;28;20461;-63
2023/10/18 07:22:54;;;;;;;350.15;227.27;;;;;;;;;;5072666;28;20442;-63
2023/10/18 07:25:22;;;;;;;354.85;231.73;;;;;;;;;;5075698;28;20447;-66
2023/10/18 07:27:49;;;;;;;350.73;228.90;;;;;;;;;;5078481;28;20410;-63
2023/10/18 07:30:17;;;;;;;339.00;243.82;;;;;;;;;;5077082;28;20427;-64
2023/10/18 07:32:48;;;;;;;343.38;254.43;;;;;;;;;;5077397;28;20915;-65
2023/10/18 07:35:26;;;;;;;350.55;254.98;;;;;;;;;;5070626;28;20490;-64
2023/10/18 07:37:55;;;;;;;350.55;237.55;;;;;;;;;;5073316;28;20414;-65
2023/10/18 07:40:23;;;;;;;357.70;237.63;;;;;;;;;;5075821;28;20435;-64
2023/10/18 07:42:51;;;;;;;349.77;230.43;;;;;;;;;;5076224;28;20418;-65
2023/10/18 07:45:21;;;;;;;358.15;242.75;;;;;;;;;;5078065;28;20413;-65
2023/10/18 07:47:53;;;;;;;354.80;238.52;;;;;;;;;;5076417;28;20411;-65
2023/10/18 07:50:43;;;;;;;354.27;241.20;;;;;;;;;;5074909;28;20408;-64
2023/10/18 07:53:12;;;;;;;363.90;260.45;;;;;;;;;;5075259;28;20419;-66
2023/10/18 07:55:41;;;;;;;353.65;261.60;;;;;;;;;;5079170;28;20406;-64
2023/10/18 07:58:21;;;;;;;360.13;250.85;;;;;;;;;;5082217;28;20413;-64
2023/10/18 08:01:07;;;;;;;359.70;250.73;;;;;;;;;;5082826;28;20490;-64
2023/10/18 08:03:36;;;;;;;360.80;257.15;;;;;;;;;;5080434;28;20486;-64
2023/10/18 08:06:06;;;;;;;357.10;244.32;;;;;;;;;;5073562;28;20413;-64
2023/10/18 08:08:36;;;;;;;343.13;265.30;;;;;;;;;;5078765;28;20884;-62
2023/10/18 08:11:06;;;;;;;370.27;283.30;;;;;;;;;;5078464;28;20414;-61
2023/10/18 08:13:43;;;;;;;367.42;278.52;;;;;;;;;;5080642;28;20410;-60
2023/10/18 08:16:19;;;;;;;376.53;293.60;;;;;;;;;;5081090;28;20471;-61
2023/10/18 08:18:52;;;;;;;365.73;276.50;;;;;;;;;;5080636;28;20476;-61
2023/10/18 08:21:26;;;;;;;362.77;278.85;;;;;;;;;;5075363;28;20447;-61
2023/10/18 08:23:55;;;;;;;366.50;285.90;;;;;;;;;;5079105;28;20502;-63
2023/10/18 08:26:22;;;;;;;368.13;280.38;;;;;;;;;;5074636;28;20422;-62
2023/10/18 08:28:53;;;;;;;363.35;275.95;;;;;;;;;;5080466;28;20409;-60
2023/10/18 08:31:29;;;;;;;371.58;295.33;;;;;;;;;;5081446;28;20406;-63
2023/10/18 08:33:56;;;;;;;371.85;294.23;;;;;;;;;;5080309;28;20494;-61
2023/10/18 08:36:30;;;;;;;366.83;285.42;;;;;;;;;;5074539;28;20469;-60
2023/10/18 08:38:58;;;;;;;371.05;297.17;;;;;;;;;;5079656;28;20448;-62
2023/10/18 08:41:26;;;;;;;375.08;312.02;;;;;;;;;;5083005;28;20410;-62
2023/10/18 08:44:02;;;;;;;375.50;317.85;;;;;;;;;;5077433;28;20442;-63
2023/10/18 08:46:29;;;;;;;369.98;299.10;;;;;;;;;;5080618;28;20406;-63
2023/10/18 08:48:57;;;;;;;370.75;309.20;;;;;;;;;;5080950;28;20419;-63
2023/10/18 08:51:27;;;;;;;375.85;315.13;;;;;;;;;;5082010;28;20497;-62
2023/10/18 08:53:56;;;;;;;376.23;324.17;;;;;;;;;;5083123;28;20455;-63
2023/10/18 08:56:29;;;;;;;382.00;334.95;;;;;;;;;;5081120;28;20446;-62
2023/10/18 08:58:57;;;;;;;377.90;334.08;;;;;;;;;;5080886;28;20427;-61
2023/10/18 09:01:24;;;;;;;373.50;322.95;;;;;;;;;;5076620;28;20969;-61
2023/10/18 09:03:50;;;;;;;376.75;331.65;;;;;;;;;;5083100;28;20479;-63
2023/10/18 09:06:30;;;;;;;381.02;339.15;;;;;;;;;;5078856;28;20399;-64
2023/10/18 09:09:05;;;;;;;390.20;348.40;;;;;;;;;;5077950;28;20409;-64
2023/10/18 09:11:33;;;;;;;389.23;348.23;;;;;;;;;;5077656;28;21013;-63
2023/10/18 09:14:08;;;;;;;400.88;359.05;;;;;;;;;;5083725;28;20501;-62
2023/10/18 09:16:35;;;;;;;434.10;391.13;;;;;;;;;;5085460;28;20489;-63
2023/10/18 09:19:05;;;;;;;429.50;389.93;;;;;;;;;;5074719;28;20424;-65
2023/10/18 09:21:42;;;;;;;418.70;379.98;;;;;;;;;;5077441;28;20404;-65
2023/10/18 09:24:09;;;;;;;427.65;389.50;;;;;;;;;;5068879;28;20502;-64
2023/10/18 09:26:41;;;;;;;415.20;375.45;;;;;;;;;;5074658;28;20486;-63
2023/10/18 09:29:09;;;;;;;444.08;401.92;;;;;;;;;;5074872;28;20400;-63
2023/10/18 09:31:37;;;;;;;421.45;379.98;;;;;;;;;;5080686;28;20424;-63
2023/10/18 09:34:08;;;;;;;445.48;401.77;;;;;;;;;;5073852;28;20952;-62
2023/10/18 09:36:39;;;;;;;442.83;400.17;;;;;;;;;;5079140;28;20510;-64
2023/10/18 09:39:09;;;;;;;459.50;416.85;;;;;;;;;;5079039;28;20513;-62
2023/10/18 09:41:39;;;;;;;444.90;402.42;;;;;;;;;;5081027;28;20415;-63
2023/10/18 09:44:07;;;;;;;453.95;414.75;;;;;;;;;;5079961;28;20422;-64
2023/10/18 09:46:34;;;;;;;453.55;412.73;;;;;;;;;;5075500;28;20465;-63
2023/10/18 09:49:05;;;;;;;470.77;429.85;;;;;;;;;;5081535;28;20410;-63
2023/10/18 09:51:34;;;;;;;478.83;435.70;;;;;;;;;;5082177;28;20425;-63
2023/10/18 09:54:06;;;;;;;484.42;440.27;;;;;;;;;;5080211;28;20472;-62
2023/10/18 09:56:34;;;;;;;469.42;425.23;;;;;;;;;;5078936;28;20494;-61
2023/10/18 09:59:08;;;;;;;484.98;440.67;;;;;;;;;;5076036;28;20477;-60
2023/10/18 10:04:18;;;;;;;515.97;473.20;;;;;;;;;;5089904;28;20501;-64
2023/10/18 10:06:47;;;;;;;493.98;451.48;;;;;;;;;;5077008;28;20408;-63
2023/10/18 10:09:13;;;;;;;518.20;474.13;;;;;;;;;;5077848;28;20872;-63
2023/10/18 10:11:43;;;;;;;510.53;466.73;;;;;;;;;;5081060;28;20433;-67
2023/10/18 10:14:12;;;;;;;516.10;471.00;;;;;;;;;;5082418;28;20417;-66
2023/10/18 10:16:45;;;;;;;533.60;488.92;;;;;;;;;;5079676;28;20633;-66
2023/10/18 10:19:13;;;;;;;503.80;460.52;;;;;;;;;;5078517;28;20423;-67
2023/10/18 10:21:40;;;;;;;510.60;466.20;;;;;;;;;;5081246;28;20413;-67
2023/10/18 10:24:09;;;;;;;519.13;474.13;;;;;;;;;;5080241;28;20410;-62
2023/10/18 10:26:36;;;;;;;516.17;471.40;;;;;;;;;;5081506;28;20525;-63
2023/10/18 10:31:51;;;;;;;531.90;486.77;;;;;;;;;;5075736;28;20430;-63
2023/10/18 10:34:24;;;;;;;530.60;485.27;;;;;;;;;;5078767;28;20408;-62
2023/10/18 10:36:51;;;;;;;528.05;483.52;;;;;;;;;;5071401;28;20460;-63
2023/10/18 10:39:31;;;;;;;532.63;492.30;;;;;;;;;;5073191;28;20827;-62
2023/10/18 10:42:08;;;;;;;563.57;518.50;;;;;;;;;;5076763;28;20992;-62
2023/10/18 10:44:50;;;;;;;541.53;498.20;;;;;;;;;;5071228;28;20412;-62
2023/10/18 10:47:30;;;;;;;560.20;515.67;;;;;;;;;;5079642;28;20495;-63
2023/10/18 10:49:59;;;;;;;543.13;499.13;;;;;;;;;;5075695;28;20410;-62
2023/10/18 10:52:29;;;;;;;553.88;508.60;;;;;;;;;;5081334;28;20537;-63
2023/10/18 10:55:01;;;;;;;558.30;514.40;;;;;;;;;;5079771;28;20408;-60
2023/10/18 10:57:30;;;;;;;559.30;514.47;;;;;;;;;;5078458;28;20500;-61
2023/10/18 10:59:58;;;;;;;567.03;522.90;;;;;;;;;;5080290;28;20475;-64
2023/10/18 11:02:40;;;;;;;593.90;549.08;;;;;;;;;;5080546;28;20406;-61
2023/10/18 11:05:15;;;;;;;597.70;551.22;;;;;;;;;;5071009;28;20406;-65
2023/10/18 11:07:44;;;;;;;593.10;546.20;;;;;;;;;;5070550;28;20414;-64
2023/10/18 11:10:16;;;;;;;615.35;567.88;;;;;;;;;;5079833;28;20781;-68
2023/10/18 11:12:45;;;;;;;546.40;501.48;;;;;;;;;;5077951;28;20499;-67
2023/10/18 11:15:17;;;;;;;553.92;508.88;;;;;;;;;;5079508;28;20437;-67
2023/10/18 11:17:47;;;;;;;554.53;509.73;;;;;;;;;;5081096;28;20414;-66
2023/10/18 11:20:24;;;;;;;525.43;481.83;;;;;;;;;;5079177;28;20494;-65
2023/10/18 11:22:51;;;;;;;560.70;515.08;;;;;;;;;;5077866;28;20425;-62
2023/10/18 11:25:30;;;;;;;566.38;520.63;;;;;;;;;;5079189;28;20406;-62
2023/10/18 11:28:10;;;;;;;547.67;502.45;;;;;;;;;;5081053;28;20425;-62
2023/10/18 11:30:37;;;;;;;559.47;513.58;;;;;;;;;;5084632;28;20406;-63
2023/10/18 11:33:06;;;;;;;562.78;517.35;;;;;;;;;;5082281;28;20411;-62
2023/10/18 11:35:42;;;;;;;579.08;532.70;;;;;;;;;;5080712;28;20755;-59
2023/10/18 11:38:10;;;;;;;579.27;532.40;;;;;;;;;;5077957;28;21042;-60
2023/10/18 11:40:40;;;;;;;601.17;553.80;;;;;;;;;;5083722;28;20449;-62
2023/10/18 11:43:08;;;;;;;565.90;520.25;;;;;;;;;;5081633;28;20506;-62
2023/10/18 11:45:37;;;;;;;587.63;541.10;;;;;;;;;;5083269;28;20467;-64
2023/10/18 11:48:06;;;;;;;571.42;525.22;;;;;;;;;;5083810;28;20441;-63
2023/10/18 11:50:42;;;;;;;583.20;537.10;;;;;;;;;;5077351;28;20414;-63
2023/10/18 11:53:12;;;;;;;583.83;537.90;;;;;;;;;;5081803;28;20965;-63
2023/10/18 11:55:53;;;;;;;591.33;544.92;;;;;;;;;;5077555;28;20419;-63
2023/10/18 11:58:21;;;;;;;577.15;531.20;;;;;;;;;;5081309;28;20498;-63
2023/10/18 12:00:49;;;;;;;615.08;567.80;;;;;;;;;;5082737;28;20426;-63
2023/10/18 12:03:18;;;;;;;587.97;541.83;;;;;;;;;;5083658;28;20967;-62
2023/10/18 12:05:45;;;;;;;581.33;535.20;;;;;;;;;;5075687;28;20423;-67
2023/10/18 12:08:13;;;;;;;606.72;560.00;;;;;;;;;;5078956;28;20406;-65
2023/10/18 12:10:40;;;;;;;608.70;561.67;;;;;;;;;;5083862;28;20406;-66
2023/10/18 12:13:12;;;;;;;623.45;576.00;;;;;;;;;;5077577;28;20456;-63
2023/10/18 12:15:39;;;;;;;636.17;588.17;;;;;;;;;;5081826;28;21435;-63
2023/10/18 12:18:08;;;;;;;645.43;597.23;;;;;;;;;;5084274;28;20405;-67
2023/10/18 12:20:42;;;;;;;646.25;598.08;;;;;;;;;;5082048;28;20525;-67
2023/10/18 12:23:12;;;;;;;647.22;598.95;;;;;;;;;;5080823;28;20432;-66
2023/10/18 12:25:41;;;;;;;639.40;591.30;;;;;;;;;;5082748;28;20444;-67
2023/10/18 12:28:12;;;;;;;636.60;588.28;;;;;;;;;;5071518;28;20428;-65
2023/10/18 12:30:41;;;;;;;622.90;574.63;;;;;;;;;;5070101;28;20404;-65
2023/10/18 12:33:14;;;;;;;607.70;560.40;;;;;;;;;;5076278;28;20414;-65
2023/10/18 12:35:42;;;;;;;633.53;585.47;;;;;;;;;;5074461;28;20507;-65
2023/10/18 12:38:14;;;;;;;630.47;582.30;;;;;;;;;;5076801;28;20922;-65
2023/10/18 12:40:51;;;;;;;641.30;592.80;;;;;;;;;;5080498;28;20422;-64
2023/10/18 12:43:19;;;;;;;626.17;578.38;;;;;;;;;;5079961;28;20469;-64
2023/10/18 12:45:50;;;;;;;630.20;582.60;;;;;;;;;;5077591;28;20469;-63
2023/10/18 12:48:22;;;;;;;621.13;573.47;;;;;;;;;;5079766;28;20417;-64
2023/10/18 12:50:50;;;;;;;612.33;565.17;;;;;;;;;;5080157;28;20406;-63
2023/10/18 12:53:31;;;;;;;616.20;568.85;;;;;;;;;;5070916;28;20423;-63
2023/10/18 12:55:59;;;;;;;630.93;582.90;;;;;;;;;;5072905;28;20396;-63
2023/10/18 12:58:29;;;;;;;615.28;568.22;;;;;;;;;;5074969;28;20441;-64
2023/10/18 13:01:05;;;;;;;639.47;591.63;;;;;;;;;;5078631;28;20425;-63
2023/10/18 13:03:33;;;;;;;633.10;585.28;;;;;;;;;;5076732;28;20433;-63
2023/10/18 13:06:07;;;;;;;626.75;578.92;;;;;;;;;;5078664;28;20403;-64
2023/10/18 13:08:37;;;;;;;626.15;578.42;;;;;;;;;;5078222;28;20405;-64
2023/10/18 13:11:44;;;;;;;630.25;582.55;;;;;;;;;;5080315;28;20897;-63
2023/10/18 13:14:06;;;;;;;614.53;567.28;;;;;;;;;;5078080;28;20925;-63
2023/10/18 13:16:33;;;;;;;621.33;574.08;;;;;;;;;;5080196;28;20421;-63
2023/10/18 13:19:03;;;;;;;627.05;579.35;;;;;;;;;;5083727;28;20406;-63
2023/10/18 13:21:32;;;;;;;625.95;578.17;;;;;;;;;;5081409;28;20431;-64
2023/10/18 13:24:04;;;;;;;617.55;570.20;;;;;;;;;;5079666;28;20882;-64
2023/10/18 13:26:32;;;;;;;617.50;570.05;;;;;;;;;;5077187;28;20416;-63
2023/10/18 13:29:00;;;;;;;602.67;555.67;;;;;;;;;;5079994;28;20416;-62
2023/10/18 13:31:31;;;;;;;619.67;572.40;;;;;;;;;;5074729;28;20468;-62
2023/10/18 13:33:58;;;;;;;627.13;579.63;;;;;;;;;;5079467;28;20412;-62
2023/10/18 13:36:25;;;;;;;626.42;578.67;;;;;;;;;;5077075;28;20412;-62
2023/10/18 13:38:54;;;;;;;601.38;554.67;;;;;;;;;;5074575;28;20396;-62
2023/10/18 13:41:21;;;;;;;612.05;564.92;;;;;;;;;;5081110;28;20526;-62
2023/10/18 13:43:49;;;;;;;618.00;570.77;;;;;;;;;;5079477;28;20477;-62
2023/10/18 13:46:19;;;;;;;629.17;581.30;;;;;;;;;;5067860;28;20397;-63
2023/10/18 13:48:48;;;;;;;622.72;575.28;;;;;;;;;;5079378;28;20416;-62
2023/10/18 13:51:16;;;;;;;627.35;579.58;;;;;;;;;;5078869;28;20425;-63
2023/10/18 13:53:43;;;;;;;640.13;591.72;;;;;;;;;;5076317;28;20928;-62
2023/10/18 13:56:12;;;;;;;651.70;603.33;;;;;;;;;;5075366;28;20409;-62
2023/10/18 13:58:40;;;;;;;634.30;586.53;;;;;;;;;;5078661;28;20409;-62
2023/10/18 14:01:07;;;;;;;632.22;584.55;;;;;;;;;;5080838;28;20502;-62
2023/10/18 14:03:37;;;;;;;632.58;584.75;;;;;;;;;;5081447;28;20401;-62
2023/10/18 14:06:07;;;;;;;646.60;598.15;;;;;;;;;;5072980;28;20837;-62
2023/10/18 14:08:34;;;;;;;634.60;586.70;;;;;;;;;;5077822;28;20530;-62
2023/10/18 14:11:01;;;;;;;621.88;574.03;;;;;;;;;;5076075;28;20416;-62
2023/10/18 14:13:29;;;;;;;643.15;594.92;;;;;;;;;;5077505;28;20470;-62
2023/10/18 14:15:56;;;;;;;645.28;596.97;;;;;;;;;;5077201;28;20440;-62
2023/10/18 14:18:25;;;;;;;641.53;593.15;;;;;;;;;;5079460;28;20866;-64
2023/10/18 14:20:52;;;;;;;632.90;584.90;;;;;;;;;;5072963;28;20974;-63
2023/10/18 14:23:26;;;;;;;647.80;599.47;;;;;;;;;;5078321;28;20965;-62
2023/10/18 14:25:53;;;;;;;635.95;588.10;;;;;;;;;;5074822;28;20412;-62
2023/10/18 14:28:21;;;;;;;622.23;574.83;;;;;;;;;;5079684;28;20507;-63
2023/10/18 14:30:51;;;;;;;662.45;613.67;;;;;;;;;;5081467;28;21169;-62
2023/10/18 14:33:19;;;;;;;650.90;602.47;;;;;;;;;;5071153;28;20406;-64